createdAt,value
2018-11-20T00:02:43.799Z,9.87
2018-11-20T00:05:32.922Z,9.17
2018-11-20T00:08:22.110Z,11.40
2018-11-20T00:11:29.167Z,10.43
2018-11-20T00:14:27.229Z,9.03
2018-11-20T00:17:25.552Z,10.23
2018-11-20T00:20:09.230Z,8.57
2018-11-20T00:22:58.429Z,9.83
2018-11-20T00:25:46.143Z,12.03
2018-11-20T00:28:35.874Z,9.57
2018-11-20T00:31:23.269Z,14.47
2018-11-20T00:34:10.768Z,11.10
2018-11-20T00:37:03.874Z,10.93
2018-11-20T00:39:55.883Z,10.30
2018-11-20T00:42:56.843Z,10.13
2018-11-20T00:45:44.275Z,12.33
2018-11-20T00:48:32.066Z,9.40
2018-11-20T00:51:19.766Z,13.20
2018-11-20T00:54:23.764Z,14.83
2018-11-20T00:57:16.158Z,12.80
2018-11-20T01:00:11.286Z,12.37
2018-11-20T01:03:06.537Z,15.77
2018-11-20T01:06:04.827Z,14.77
2018-11-20T01:09:03.113Z,13.17
2018-11-20T01:12:04.272Z,11.97
2018-11-20T01:14:56.508Z,11.77
2018-11-20T01:17:51.515Z,12.30
2018-11-20T01:20:33.348Z,13.57
2018-11-20T01:23:21.070Z,13.10
2018-11-20T01:26:02.390Z,11.97
2018-11-20T01:28:50.100Z,16.70
2018-11-20T01:31:42.084Z,13.03
2018-11-20T01:34:29.485Z,14.47
2018-11-20T01:37:24.557Z,12.27
2018-11-20T01:40:19.753Z,14.13
2018-11-20T01:43:07.279Z,13.23
2018-11-20T01:46:05.242Z,15.53
2018-11-20T01:48:57.045Z,11.93
2018-11-20T01:51:51.843Z,14.27
2018-11-20T01:54:42.632Z,14.57
2018-11-20T01:57:40.790Z,14.03
2018-11-20T02:00:32.613Z,15.67
2018-11-20T02:03:21.788Z,15.17
2018-11-20T02:06:26.027Z,17.30
2018-11-20T02:09:07.480Z,15.70
2018-11-20T02:12:05.781Z,14.07
2018-11-20T02:14:53.443Z,16.50
2018-11-20T02:17:49.623Z,14.83
2018-11-20T02:20:50.522Z,16.57
2018-11-20T02:23:38.059Z,13.30
2018-11-20T02:26:27.890Z,16.97
2018-11-20T02:29:19.863Z,15.27
2018-11-20T02:32:17.836Z,17.10
2018-11-20T02:34:58.960Z,14.07
2018-11-20T02:37:46.599Z,16.07
2018-11-20T02:40:41.680Z,17.07
2018-11-20T02:43:23.202Z,14.03
2018-11-20T02:46:10.533Z,15.47
2018-11-20T02:49:11.463Z,15.93
2018-11-20T02:51:58.956Z,15.90
2018-11-20T02:54:50.612Z,14.67
2018-11-20T02:57:38.398Z,14.60
2018-11-20T03:00:46.199Z,13.57
2018-11-20T03:03:35.416Z,13.40
2018-11-20T03:06:20.157Z,13.93
2018-11-20T03:09:13.293Z,11.87
2018-11-20T03:12:05.036Z,12.63
2018-11-20T03:14:52.589Z,12.40
2018-11-20T03:17:47.552Z,13.97
2018-11-20T03:20:42.796Z,14.07
2018-11-20T03:23:25.683Z,14.93
2018-11-20T03:26:15.241Z,13.30
2018-11-20T03:30:05.827Z,16.70
2018-11-20T03:33:04.347Z,13.30
2018-11-20T03:35:51.876Z,15.73
2018-11-20T03:38:39.286Z,14.70
2018-11-20T03:41:34.681Z,17.70
2018-11-20T03:44:13.233Z,17.90
2018-11-20T03:47:05.049Z,18.33
2018-11-20T03:49:52.662Z,16.30
2018-11-20T03:52:48.617Z,14.27
2018-11-20T03:55:32.086Z,13.73
2018-11-20T03:58:27.015Z,15.87
2018-11-20T04:01:16.160Z,14.67
2018-11-20T04:03:57.819Z,14.77
2018-11-20T04:07:02.034Z,12.97
2018-11-20T04:09:51.207Z,15.33
2018-11-20T04:12:31.323Z,14.00
2018-11-20T04:15:29.522Z,15.40
2018-11-20T04:18:27.629Z,12.70
2018-11-20T04:21:15.333Z,12.37
2018-11-20T04:24:03.080Z,16.53
2018-11-20T04:27:01.213Z,15.57
2018-11-20T04:29:59.285Z,13.30
2018-11-20T04:32:36.898Z,13.73
2018-11-20T04:35:17.013Z,14.07
2018-11-20T04:38:17.875Z,16.97
2018-11-20T04:41:16.624Z,13.77
2018-11-20T04:44:08.645Z,16.33
2018-11-20T04:47:06.528Z,16.70
2018-11-20T04:49:49.331Z,14.27
2018-11-20T04:52:41.276Z,17.30
2018-11-20T04:55:29.150Z,16.00
2018-11-20T04:58:07.076Z,17.37
2018-11-20T05:00:54.858Z,16.40
2018-11-20T05:03:42.342Z,17.20
2018-11-20T05:06:46.700Z,18.50
2018-11-20T05:09:35.749Z,19.17
2018-11-20T05:12:20.328Z,16.37
2018-11-20T05:15:16.124Z,17.17
2018-11-20T05:18:08.292Z,16.83
2018-11-20T05:20:57.257Z,18.20
2018-11-20T05:23:46.457Z,18.37
2018-11-20T05:26:34.029Z,17.33
2018-11-20T05:29:35.048Z,16.90
2018-11-20T05:32:42.526Z,15.70
2018-11-20T05:35:34.578Z,19.13
2018-11-20T05:38:20.080Z,19.60
2018-11-20T05:41:07.797Z,18.10
2018-11-20T05:43:58.340Z,17.17
2018-11-20T05:46:59.453Z,17.97
2018-11-20T05:49:47.502Z,17.50
2018-11-20T05:52:39.560Z,16.10
2018-11-20T05:55:27.256Z,18.07
2018-11-20T05:58:20.544Z,17.87
2018-11-20T06:01:12.108Z,17.47
2018-11-20T06:04:06.813Z,16.80
2018-11-20T06:06:54.543Z,18.20
2018-11-20T06:09:49.461Z,18.80
2018-11-20T06:12:36.866Z,18.53
2018-11-20T06:15:35.549Z,20.43
2018-11-20T06:18:18.545Z,19.17
2018-11-20T06:20:57.851Z,17.13
2018-11-20T06:23:45.178Z,17.13
2018-11-20T06:26:42.917Z,17.33
2018-11-20T06:29:30.316Z,18.23
2018-11-20T06:32:25.572Z,18.13
2018-11-20T06:35:23.822Z,22.30
2018-11-20T06:38:22.109Z,18.63
2018-11-20T06:41:29.413Z,20.00
2018-11-20T06:44:24.663Z,19.50
2018-11-20T06:47:19.762Z,20.90
2018-11-20T06:50:20.817Z,20.77
2018-11-20T06:53:00.315Z,22.10
2018-11-20T06:56:07.152Z,21.80
2018-11-20T06:58:54.717Z,25.17
2018-11-20T07:01:47.003Z,24.17
2018-11-20T07:04:39.090Z,22.60
2018-11-20T07:07:26.883Z,22.50
2018-11-20T07:10:15.890Z,20.93
2018-11-20T07:13:13.935Z,20.87
2018-11-20T07:16:01.285Z,22.80
2018-11-20T07:18:48.832Z,21.63
2018-11-20T07:21:38.056Z,26.10
2018-11-20T07:24:25.592Z,22.50
2018-11-20T07:27:25.140Z,24.83
2018-11-20T07:30:19.550Z,21.70
2018-11-20T07:33:17.639Z,24.40
2018-11-20T07:35:58.349Z,24.63
2018-11-20T07:38:55.764Z,26.17
2018-11-20T07:41:44.936Z,24.97
2018-11-20T07:44:40.664Z,26.47
2018-11-20T07:47:20.625Z,25.03
2018-11-20T07:50:08.393Z,25.07
2018-11-20T07:52:55.955Z,26.03
2018-11-20T07:55:45.112Z,25.77
2018-11-20T07:58:32.824Z,21.27
2018-11-20T08:01:21.975Z,27.90
2018-11-20T08:04:03.350Z,25.60
2018-11-20T08:06:49.126Z,23.47
2018-11-20T08:09:41.070Z,23.87
2018-11-20T08:12:38.815Z,22.57
2018-11-20T08:15:33.743Z,22.53
2018-11-20T08:18:31.533Z,23.00
2018-11-20T08:21:19.331Z,22.30
2018-11-20T08:24:06.824Z,21.87
2018-11-20T08:26:49.198Z,20.33
2018-11-20T08:29:38.357Z,22.07
2018-11-20T08:32:25.824Z,22.43
2018-11-20T08:35:15.042Z,22.87
2018-11-20T08:38:02.560Z,23.40
2018-11-20T08:40:54.732Z,22.20
2018-11-20T08:43:46.495Z,22.23
2018-11-20T08:46:41.568Z,21.43
2018-11-20T08:49:29.229Z,21.43
2018-11-20T08:52:17.171Z,20.17
2018-11-20T08:55:12.705Z,22.07
2018-11-20T08:58:16.691Z,19.40
2018-11-20T09:00:56.846Z,25.20
2018-11-20T09:03:51.729Z,20.20
2018-11-20T09:06:43.793Z,17.73
2018-11-20T09:09:28.982Z,20.33
2018-11-20T09:12:12.093Z,18.23
2018-11-20T09:14:59.883Z,22.53
2018-11-20T09:17:47.620Z,19.73
2018-11-20T09:20:41.407Z,22.47
2018-11-20T09:23:29.434Z,20.73
2018-11-20T09:26:14.662Z,21.57
2018-11-20T09:29:06.570Z,19.77
2018-11-20T09:31:54.169Z,22.93
2018-11-20T09:34:39.701Z,22.53
2018-11-20T09:37:27.708Z,23.43
2018-11-20T09:40:55.136Z,20.37
2018-11-20T09:43:46.712Z,19.83
2018-11-20T09:46:47.551Z,19.93
2018-11-20T09:49:35.239Z,21.90
2018-11-20T09:52:34.545Z,21.10
2018-11-20T09:55:39.894Z,21.87
2018-11-20T09:58:27.822Z,21.07
2018-11-20T10:01:15.018Z,20.70
2018-11-20T10:04:10.038Z,20.17
2018-11-20T10:07:05.297Z,18.07
2018-11-20T10:10:04.922Z,21.20
2018-11-20T10:12:48.387Z,19.80
2018-11-20T10:15:43.644Z,22.20
2018-11-20T10:18:31.107Z,21.97
2018-11-20T10:21:18.855Z,22.97
2018-11-20T10:24:22.778Z,20.60
2018-11-20T10:27:10.485Z,20.23
2018-11-20T10:30:05.833Z,21.07
2018-11-20T10:32:54.039Z,20.23
2018-11-20T10:35:43.184Z,23.07
2018-11-20T10:38:38.608Z,22.43
2018-11-20T10:41:26.314Z,20.53
2018-11-20T10:44:13.696Z,20.77
2018-11-20T10:47:01.417Z,18.30
2018-11-20T10:49:53.257Z,18.43
2018-11-20T10:52:45.375Z,21.30
2018-11-20T10:55:43.454Z,21.37
2018-11-20T10:58:31.035Z,20.27
2018-11-20T11:01:18.830Z,23.10
2018-11-20T11:04:22.961Z,22.13
2018-11-20T11:07:02.660Z,22.70
2018-11-20T11:09:41.244Z,21.13
2018-11-20T11:12:39.386Z,19.77
2018-11-20T11:15:37.572Z,22.97
2018-11-20T11:18:41.702Z,21.00
2018-11-20T11:21:39.538Z,22.70
2018-11-20T11:24:27.204Z,21.03
2018-11-20T11:27:22.161Z,24.70
2018-11-20T11:30:10.145Z,18.60
2018-11-20T11:32:59.368Z,23.73
2018-11-20T11:35:48.202Z,20.40
2018-11-20T11:38:32.468Z,19.83
2018-11-20T11:41:31.993Z,22.53
2018-11-20T11:44:19.460Z,23.97
2018-11-20T11:47:26.808Z,22.43
2018-11-20T11:50:28.130Z,27.57
2018-11-20T11:53:20.096Z,22.43
2018-11-20T11:56:09.253Z,21.47
2018-11-20T11:59:04.205Z,21.60
2018-11-20T12:04:46.649Z,20.63
2018-11-20T12:07:26.396Z,25.53
2018-11-20T12:10:15.543Z,25.07
2018-11-20T12:13:04.677Z,20.30
2018-11-20T12:16:12.069Z,22.63
2018-11-20T12:18:44.213Z,22.63
2018-11-20T12:21:33.415Z,21.63
2018-11-20T12:24:40.936Z,23.20
2018-11-20T12:27:28.675Z,22.50
2018-11-20T12:30:08.900Z,22.87
2018-11-20T12:32:56.479Z,22.37
2018-11-20T12:35:48.189Z,22.90
2018-11-20T12:38:55.308Z,23.03
2018-11-20T12:41:47.025Z,17.43
2018-11-20T12:44:36.651Z,21.97
2018-11-20T12:47:34.374Z,24.27
2018-11-20T12:53:32.234Z,22.97
2018-11-20T12:56:19.747Z,22.20
2018-11-20T12:59:07.222Z,23.87
2018-11-20T13:01:56.919Z,22.10
2018-11-20T13:04:50.039Z,20.03
2018-11-20T13:07:36.377Z,23.43
2018-11-20T13:10:26.476Z,27.27
2018-11-20T13:13:24.520Z,21.73
2018-11-20T13:16:16.596Z,25.70
2018-11-20T13:19:02.897Z,19.20
2018-11-20T13:21:50.594Z,24.07
2018-11-20T13:24:46.425Z,23.63
2018-11-20T13:27:33.964Z,21.53
2018-11-20T13:30:21.646Z,23.07
2018-11-20T13:33:15.859Z,22.53
2018-11-20T13:35:58.204Z,21.33
2018-11-20T13:38:46.054Z,22.07
2018-11-20T13:42:06.577Z,23.77
2018-11-20T13:45:21.822Z,21.93
2018-11-20T13:48:22.826Z,21.40
2018-11-20T13:51:14.440Z,23.50
2018-11-20T13:54:12.978Z,22.83
2018-11-20T13:57:00.685Z,23.10
2018-11-20T13:59:52.520Z,22.00
2018-11-20T14:02:44.556Z,22.60
2018-11-20T14:05:51.561Z,23.13
2018-11-20T14:08:35.554Z,22.87
2018-11-20T14:11:37.052Z,24.93
2018-11-20T14:14:38.282Z,25.63
2018-11-20T14:17:42.677Z,24.33
2018-11-20T14:20:36.959Z,21.80
2018-11-20T14:23:34.936Z,24.70
2018-11-20T14:26:22.933Z,23.37
2018-11-20T14:29:10.459Z,26.43
2018-11-20T14:32:14.408Z,22.70
2018-11-20T14:35:06.227Z,26.60
2018-11-20T14:37:55.390Z,26.50
2018-11-20T14:40:44.507Z,27.43
2018-11-20T14:43:39.335Z,21.13
2018-11-20T14:46:37.601Z,24.50
2018-11-20T14:49:25.431Z,24.03
2018-11-20T14:55:13.116Z,26.00
2018-11-20T14:58:00.973Z,24.03
2018-11-20T15:00:48.510Z,24.20
2018-11-20T15:03:36.121Z,24.47
2018-11-20T15:06:23.924Z,26.73
2018-11-20T15:09:15.773Z,20.93
2018-11-20T15:12:02.332Z,20.47
2018-11-20T15:14:50.127Z,21.13
2018-11-20T15:17:51.118Z,20.90
2018-11-20T15:20:49.162Z,20.87
2018-11-20T15:23:47.147Z,17.87
2018-11-20T15:26:42.160Z,20.00
2018-11-20T15:30:21.611Z,21.37
2018-11-20T15:33:17.989Z,21.03
2018-11-20T15:36:06.525Z,22.43
2018-11-20T15:38:53.367Z,22.80
2018-11-20T15:41:40.685Z,24.97
2018-11-20T15:44:27.791Z,21.53
2018-11-20T15:47:16.166Z,21.77
2018-11-20T15:49:59.144Z,23.20
2018-11-20T15:52:58.216Z,22.17
2018-11-20T15:55:45.427Z,21.83
2018-11-20T15:58:32.929Z,20.10
2018-11-20T16:09:20.710Z,24.60
2018-11-20T16:12:48.325Z,25.17
2018-11-20T16:16:13.539Z,25.17
2018-11-20T16:19:27.347Z,27.47
2018-11-20T16:26:25.903Z,25.00
2018-11-20T16:29:43.566Z,28.73
2018-11-20T16:32:24.597Z,25.17
2018-11-20T16:35:38.988Z,27.13
2018-11-20T16:38:27.473Z,22.97
2018-11-20T16:41:31.404Z,23.37
2018-11-20T16:44:18.661Z,23.83
2018-11-20T16:47:09.581Z,30.17
2018-11-20T16:50:00.451Z,26.07
2018-11-20T16:52:47.121Z,25.37
2018-11-20T16:55:42.090Z,24.67
2018-11-20T16:58:28.356Z,28.33
2018-11-20T17:01:15.204Z,25.83
2018-11-20T17:04:02.245Z,31.60
2018-11-20T17:06:47.261Z,28.23
2018-11-20T17:09:34.546Z,30.23
2018-11-20T17:12:28.552Z,28.37
2018-11-20T17:15:07.328Z,30.03
2018-11-20T17:17:53.873Z,26.67
2018-11-20T17:20:45.253Z,26.90
2018-11-20T17:23:48.655Z,23.57
2018-11-20T17:26:40.013Z,23.83
2018-11-20T17:29:31.378Z,27.93
2018-11-20T17:32:15.515Z,27.57
2018-11-20T17:35:10.578Z,25.60
2018-11-20T17:37:57.834Z,25.53
2018-11-20T17:40:44.659Z,25.97
2018-11-20T17:43:32.965Z,30.10
2018-11-20T17:46:27.411Z,28.70
2018-11-20T17:49:14.508Z,27.97
2018-11-20T17:52:21.089Z,26.80
2018-11-20T17:55:09.798Z,27.03
2018-11-20T17:58:01.003Z,23.80
2018-11-20T18:04:31.458Z,27.50
2018-11-20T18:07:25.685Z,21.70
2018-11-20T18:10:14.047Z,25.90
2018-11-20T18:12:55.264Z,27.10
2018-11-20T18:15:43.721Z,22.27
2018-11-20T18:18:30.777Z,22.63
2018-11-20T18:21:24.945Z,21.97
2018-11-20T18:24:23.199Z,23.77
2018-11-20T18:27:04.542Z,23.67
2018-11-20T18:30:02.084Z,22.17
2018-11-20T18:32:52.816Z,23.90
2018-11-20T18:35:52.875Z,23.03
2018-11-20T18:38:53.491Z,24.33
2018-11-20T18:41:56.933Z,23.23
2018-11-20T18:44:44.575Z,21.87
2018-11-20T18:47:45.231Z,24.03
2018-11-20T18:50:39.567Z,21.40
2018-11-20T18:53:25.294Z,23.20
2018-11-20T18:56:16.575Z,25.07
2018-11-20T18:59:05.079Z,20.23
2018-11-20T19:01:57.353Z,20.30
2018-11-20T19:04:49.264Z,24.07
2018-11-20T19:07:25.855Z,23.00
2018-11-20T19:31:19.186Z,23.83
2018-11-20T19:34:16.287Z,24.70
2018-11-20T19:37:10.569Z,26.40
2018-11-20T19:40:01.473Z,24.97
2018-11-20T19:42:58.789Z,24.07
2018-11-20T19:45:47.725Z,25.90
2018-11-20T19:48:51.084Z,24.03
2018-11-20T19:51:38.063Z,25.73
2018-11-20T19:54:26.439Z,26.03
2018-11-20T19:57:13.325Z,25.93
2018-11-20T20:00:00.097Z,23.30
2018-11-20T20:02:50.989Z,22.83
2018-11-20T20:05:44.715Z,27.93
2018-11-20T20:08:45.448Z,22.27
2018-11-20T20:11:34.419Z,25.80
2018-11-20T20:14:23.219Z,24.27
2018-11-20T20:17:20.885Z,25.00
2018-11-20T20:23:12.364Z,27.23
2018-11-20T20:26:01.283Z,26.83
2018-11-20T20:28:50.131Z,32.83
2018-11-20T20:31:37.169Z,24.53
2018-11-20T20:34:28.577Z,27.13
2018-11-20T20:37:29.322Z,26.00
2018-11-20T20:40:16.487Z,25.73
2018-11-20T20:43:23.076Z,26.60
2018-11-20T20:46:10.207Z,28.77
2018-11-20T20:48:57.270Z,33.00
2018-11-20T20:51:46.146Z,24.70
2018-11-20T20:54:33.220Z,29.67
2018-11-20T20:57:24.873Z,27.33
2018-11-20T21:00:12.246Z,28.90
2018-11-20T21:03:15.973Z,25.83
2018-11-20T21:06:10.568Z,31.97
2018-11-20T21:08:58.452Z,30.33
2018-11-20T21:11:56.389Z,26.73
2018-11-20T21:14:48.042Z,27.37
2018-11-20T21:17:36.898Z,27.83
2018-11-20T21:20:27.562Z,28.63
2018-11-20T21:23:18.473Z,27.10
2018-11-20T21:29:32.515Z,29.27
2018-11-20T21:32:33.923Z,24.93
2018-11-20T21:35:14.385Z,28.30
2018-11-20T21:38:17.951Z,25.67
2018-11-20T21:41:06.793Z,26.50
2018-11-20T21:44:04.249Z,28.33
2018-11-20T21:46:53.076Z,25.43
2018-11-20T21:49:53.746Z,28.13
2018-11-20T21:52:42.560Z,33.33
2018-11-20T21:55:29.479Z,26.93
2018-11-20T21:58:16.737Z,27.47
2018-11-20T22:01:22.209Z,25.70
2018-11-20T22:04:19.744Z,26.87
2018-11-20T22:07:06.999Z,26.37
2018-11-20T22:10:13.713Z,28.90
2018-11-20T22:13:00.887Z,26.90
2018-11-20T22:15:47.978Z,31.13
2018-11-20T22:18:36.788Z,26.00
2018-11-20T22:21:29.983Z,27.20
2018-11-20T22:24:29.109Z,33.13
2018-11-20T22:27:26.854Z,30.70
2018-11-20T22:30:18.514Z,31.83
2018-11-20T22:33:22.084Z,29.23
2018-11-20T22:36:09.416Z,26.73
2018-11-20T22:38:58.205Z,28.37
2018-11-20T22:41:46.930Z,27.67
2018-11-20T22:44:43.166Z,28.33
2018-11-20T22:47:43.883Z,26.70
2018-11-20T22:50:30.812Z,33.10
2018-11-20T22:53:19.535Z,30.60
2018-11-20T22:56:08.310Z,36.67
2018-11-20T22:59:08.739Z,29.50
2018-11-20T23:01:55.772Z,28.57
2018-11-20T23:05:04.712Z,32.33
2018-11-20T23:07:45.334Z,34.03
2018-11-20T23:10:16.831Z,30.03
2018-11-20T23:12:46.490Z,31.30
2018-11-20T23:15:16.483Z,29.17
2018-11-20T23:17:46.133Z,30.37
2018-11-20T23:20:15.772Z,28.70
2018-11-20T23:22:45.411Z,33.10
2018-11-20T23:25:15.667Z,29.37
2018-11-20T23:27:55.972Z,29.97
2018-11-20T23:30:25.600Z,29.43
2018-11-20T23:32:55.264Z,31.30
2018-11-20T23:35:24.892Z,31.53
2018-11-20T23:37:54.534Z,24.27
2018-11-20T23:40:24.153Z,29.90
2018-11-20T23:42:53.783Z,29.87
2018-11-20T23:45:23.445Z,31.13
2018-11-20T23:47:53.095Z,32.43
2018-11-20T23:50:22.769Z,29.90
2018-11-20T23:52:58.119Z,30.87
2018-11-20T23:55:33.811Z,32.20
2018-11-20T23:58:12.616Z,30.57
